HBLVC LSGL-LSGG
Flight info
| Callsign | HBLVC |
|---|---|
| Flight time | 0h 25m |
| Altitude | 6500 |
| Route | SAPRE |
| Aircraft | DA42/L-SDEFGHY/L |
Departure
| Time | 2026-05-07 18:34 |
|---|---|
| Airport | Lausanne la Blécherette Airport (LSGL) |
Arrival
| Time | 2026-05-07 19:00 |
|---|---|
| Airport | Geneva International Airport (LSGG) |
| Time | Latitude | Longitude | Altitude | Speed | Heading |
|---|---|---|---|---|---|
| 2026-05-07 18:26 | 46.54235 | 6.61715 | 1997 ft | 0 kts | 2° |
| 2026-05-07 18:32 | 46.54227 | 6.61728 | 1997 ft | 9 kts | 188° |
| 2026-05-07 18:32 | 46.54162 | 6.61684 | 1995 ft | 12 kts | 176° |
| 2026-05-07 18:32 | 46.54142 | 6.61683 | 1994 ft | 0 kts | 191° |
| 2026-05-07 18:33 | 46.54125 | 6.61643 | 1992 ft | 8 kts | 287° |
| 2026-05-07 18:33 | 46.54161 | 6.61628 | 1994 ft | 4 kts | 11° |
| 2026-05-07 18:33 | 46.54309 | 6.61646 | 1998 ft | 50 kts | 3° |
| 2026-05-07 18:34 | 46.54797 | 6.61690 | 2046 ft | 85 kts | 3° |
| 2026-05-07 18:34 | 46.55380 | 6.61698 | 2323 ft | 87 kts | 1° |
| 2026-05-07 18:34 | 46.55962 | 6.61700 | 2746 ft | 82 kts | 7° |
| 2026-05-07 18:34 | 46.56562 | 6.61785 | 3049 ft | 87 kts | 6° |
| 2026-05-07 18:35 | 46.57136 | 6.61860 | 3384 ft | 86 kts | 5° |
| 2026-05-07 18:35 | 46.57747 | 6.61896 | 3643 ft | 92 kts | 4° |
| 2026-05-07 18:35 | 46.58405 | 6.61936 | 3893 ft | 96 kts | 4° |
| 2026-05-07 18:35 | 46.59071 | 6.61974 | 4152 ft | 96 kts | 4° |
| 2026-05-07 18:36 | 46.59737 | 6.62003 | 4412 ft | 96 kts | 4° |
| 2026-05-07 18:36 | 46.60425 | 6.62016 | 4672 ft | 101 kts | 4° |
| 2026-05-07 18:36 | 46.61143 | 6.62042 | 4928 ft | 105 kts | 4° |
| 2026-05-07 18:36 | 46.61878 | 6.62065 | 5176 ft | 107 kts | 4° |
| 2026-05-07 18:37 | 46.62588 | 6.61737 | 5426 ft | 113 kts | 321° |
| 2026-05-07 18:37 | 46.62938 | 6.60720 | 5677 ft | 117 kts | 275° |
| 2026-05-07 18:37 | 46.62735 | 6.59586 | 5944 ft | 117 kts | 244° |
| 2026-05-07 18:37 | 46.62369 | 6.58479 | 6039 ft | 128 kts | 243° |
| 2026-05-07 18:38 | 46.61967 | 6.57276 | 6040 ft | 136 kts | 243° |
| 2026-05-07 18:38 | 46.61544 | 6.56017 | 6033 ft | 140 kts | 243° |
| 2026-05-07 18:38 | 46.61111 | 6.54743 | 6093 ft | 138 kts | 243° |
| 2026-05-07 18:38 | 46.60697 | 6.53520 | 6244 ft | 132 kts | 243° |
| 2026-05-07 18:39 | 46.60302 | 6.52342 | 6394 ft | 128 kts | 243° |
| 2026-05-07 18:39 | 46.59921 | 6.51188 | 6539 ft | 126 kts | 243° |
| 2026-05-07 18:39 | 46.59556 | 6.50041 | 6686 ft | 124 kts | 243° |
| 2026-05-07 18:39 | 46.59197 | 6.48907 | 6830 ft | 123 kts | 243° |
| 2026-05-07 18:40 | 46.58793 | 6.47822 | 6977 ft | 121 kts | 237° |
| 2026-05-07 18:40 | 46.58365 | 6.46732 | 7034 ft | 128 kts | 239° |
| 2026-05-07 18:40 | 46.57932 | 6.45568 | 7040 ft | 133 kts | 240° |
| 2026-05-07 18:40 | 46.57493 | 6.44359 | 7043 ft | 136 kts | 239° |
| 2026-05-07 18:41 | 46.57052 | 6.43134 | 7041 ft | 137 kts | 240° |
| 2026-05-07 18:41 | 46.56610 | 6.41901 | 7046 ft | 139 kts | 239° |
| 2026-05-07 18:41 | 46.56083 | 6.40709 | 7047 ft | 141 kts | 229° |
| 2026-05-07 18:41 | 46.55458 | 6.39592 | 7043 ft | 143 kts | 228° |
| 2026-05-07 18:42 | 46.54822 | 6.38475 | 7035 ft | 144 kts | 228° |
| 2026-05-07 18:42 | 46.54178 | 6.37352 | 7036 ft | 145 kts | 228° |
| 2026-05-07 18:42 | 46.53496 | 6.36178 | 7030 ft | 157 kts | 228° |
| 2026-05-07 18:42 | 46.52771 | 6.34949 | 7030 ft | 163 kts | 227° |
| 2026-05-07 18:43 | 46.52033 | 6.33688 | 7032 ft | 163 kts | 227° |
| 2026-05-07 18:43 | 46.51304 | 6.32441 | 7031 ft | 161 kts | 228° |
| 2026-05-07 18:43 | 46.50574 | 6.31208 | 7031 ft | 161 kts | 228° |
| 2026-05-07 18:43 | 46.49847 | 6.29978 | 7031 ft | 160 kts | 227° |
| 2026-05-07 18:44 | 46.49126 | 6.28750 | 7035 ft | 160 kts | 228° |
| 2026-05-07 18:44 | 46.48399 | 6.27522 | 7032 ft | 160 kts | 227° |
| 2026-05-07 18:44 | 46.47689 | 6.26309 | 7030 ft | 159 kts | 228° |
| 2026-05-07 18:44 | 46.46969 | 6.25083 | 7031 ft | 160 kts | 228° |
| 2026-05-07 18:45 | 46.46247 | 6.23855 | 7034 ft | 160 kts | 227° |
| 2026-05-07 18:45 | 46.45522 | 6.22613 | 7036 ft | 164 kts | 227° |
| 2026-05-07 18:45 | 46.44775 | 6.21334 | 7036 ft | 168 kts | 228° |
| 2026-05-07 18:45 | 46.44012 | 6.20026 | 7037 ft | 171 kts | 228° |
| 2026-05-07 18:46 | 46.43237 | 6.18707 | 7035 ft | 173 kts | 228° |
| 2026-05-07 18:46 | 46.42455 | 6.17386 | 7034 ft | 173 kts | 227° |
| 2026-05-07 18:46 | 46.41940 | 6.16509 | 7034 ft | 173 kts | 228° |
| 2026-05-07 18:46 | 46.41160 | 6.15182 | 7033 ft | 173 kts | 228° |
| 2026-05-07 18:47 | 46.40375 | 6.13861 | 7014 ft | 173 kts | 228° |
| 2026-05-07 18:47 | 46.39583 | 6.12549 | 7015 ft | 174 kts | 227° |
| 2026-05-07 18:47 | 46.38787 | 6.11233 | 7014 ft | 173 kts | 228° |
| 2026-05-07 18:47 | 46.37994 | 6.09919 | 7015 ft | 173 kts | 227° |
| 2026-05-07 18:48 | 46.37201 | 6.08603 | 7014 ft | 173 kts | 228° |
| 2026-05-07 18:48 | 46.36408 | 6.07293 | 7019 ft | 173 kts | 227° |
| 2026-05-07 18:48 | 46.35616 | 6.05977 | 7016 ft | 174 kts | 228° |
| 2026-05-07 18:48 | 46.34820 | 6.04661 | 7015 ft | 173 kts | 227° |
| 2026-05-07 18:49 | 46.34030 | 6.03350 | 7010 ft | 172 kts | 228° |
| 2026-05-07 18:49 | 46.33239 | 6.02048 | 7010 ft | 172 kts | 228° |
| 2026-05-07 18:49 | 46.32458 | 6.00759 | 7010 ft | 169 kts | 228° |
| 2026-05-07 18:49 | 46.31694 | 5.99469 | 7021 ft | 170 kts | 227° |
| 2026-05-07 18:50 | 46.30921 | 5.98166 | 7014 ft | 171 kts | 227° |
| 2026-05-07 18:50 | 46.30152 | 5.96855 | 7015 ft | 171 kts | 227° |
| 2026-05-07 18:50 | 46.29381 | 5.95547 | 7010 ft | 170 kts | 228° |
| 2026-05-07 18:50 | 46.28614 | 5.94241 | 7017 ft | 171 kts | 228° |
| 2026-05-07 18:51 | 46.27844 | 5.92935 | 7017 ft | 170 kts | 227° |
| 2026-05-07 18:51 | 46.27073 | 5.91627 | 7015 ft | 171 kts | 227° |
| 2026-05-07 18:51 | 46.26306 | 5.90330 | 7015 ft | 169 kts | 227° |
| 2026-05-07 18:51 | 46.25539 | 5.89034 | 7019 ft | 170 kts | 227° |
| 2026-05-07 18:52 | 46.24770 | 5.87724 | 7017 ft | 171 kts | 228° |
| 2026-05-07 18:52 | 46.24002 | 5.86412 | 7020 ft | 172 kts | 228° |
| 2026-05-07 18:52 | 46.23226 | 5.85093 | 7021 ft | 173 kts | 227° |
| 2026-05-07 18:52 | 46.22450 | 5.83773 | 7016 ft | 172 kts | 227° |
| 2026-05-07 18:53 | 46.21678 | 5.82463 | 7015 ft | 171 kts | 228° |
| 2026-05-07 18:53 | 46.20899 | 5.81147 | 7016 ft | 173 kts | 228° |
| 2026-05-07 18:53 | 46.20116 | 5.79830 | 7012 ft | 172 kts | 228° |
| 2026-05-07 18:53 | 46.19170 | 5.78848 | 7014 ft | 169 kts | 196° |
| 2026-05-07 18:54 | 46.18018 | 5.78948 | 7011 ft | 170 kts | 158° |
| 2026-05-07 18:54 | 46.17091 | 5.80023 | 7015 ft | 173 kts | 133° |
| 2026-05-07 18:54 | 46.16608 | 5.81608 | 7012 ft | 178 kts | 99° |
| 2026-05-07 18:54 | 46.16559 | 5.83400 | 7019 ft | 179 kts | 94° |
| 2026-05-07 18:55 | 46.16552 | 5.85208 | 6928 ft | 184 kts | 93° |
| 2026-05-07 18:55 | 46.16550 | 5.87095 | 6669 ft | 192 kts | 92° |
| 2026-05-07 18:55 | 46.16544 | 5.89059 | 6309 ft | 199 kts | 92° |
| 2026-05-07 18:55 | 46.16526 | 5.91061 | 5919 ft | 198 kts | 92° |
| 2026-05-07 18:56 | 46.16506 | 5.92931 | 5520 ft | 182 kts | 92° |
| 2026-05-07 18:56 | 46.16472 | 5.94743 | 5030 ft | 180 kts | 92° |
| 2026-05-07 18:56 | 46.16417 | 5.96497 | 4456 ft | 168 kts | 92° |
| 2026-05-07 18:56 | 46.16340 | 5.98114 | 3831 ft | 157 kts | 92° |
| 2026-05-07 18:57 | 46.16354 | 5.99619 | 3242 ft | 149 kts | 72° |
| 2026-05-07 18:57 | 46.16895 | 6.00735 | 3107 ft | 138 kts | 46° |
| 2026-05-07 18:57 | 46.17587 | 6.01777 | 2915 ft | 148 kts | 45° |
| 2026-05-07 18:57 | 46.18327 | 6.02860 | 2702 ft | 154 kts | 45° |
| 2026-05-07 18:58 | 46.19079 | 6.03965 | 2493 ft | 154 kts | 45° |
| 2026-05-07 18:58 | 46.19825 | 6.05067 | 2273 ft | 153 kts | 45° |
| 2026-05-07 18:58 | 46.20540 | 6.06117 | 2066 ft | 131 kts | 45° |
| 2026-05-07 18:58 | 46.21037 | 6.06849 | 1909 ft | 81 kts | 43° |
| 2026-05-07 18:59 | 46.21474 | 6.07459 | 1861 ft | 94 kts | 43° |
| 2026-05-07 18:59 | 46.21939 | 6.08137 | 1752 ft | 96 kts | 42° |
| 2026-05-07 18:59 | 46.22399 | 6.08848 | 1586 ft | 96 kts | 43° |
| 2026-05-07 18:59 | 46.22844 | 6.09478 | 1425 ft | 80 kts | 44° |
| 2026-05-07 19:00 | 46.23204 | 6.10008 | 1399 ft | 47 kts | 46° |
| 2026-05-07 19:00 | 46.23300 | 6.10121 | 1394 ft | 11 kts | 349° |
| 2026-05-07 19:00 | 46.23348 | 6.10064 | 1396 ft | 8 kts | 316° |
| 2026-05-07 19:00 | 46.23371 | 6.10031 | 1396 ft | 0 kts | 316° |
| 2026-05-07 19:01 | 46.23396 | 6.09996 | 1396 ft | 8 kts | 315° |
| 2026-05-07 19:01 | 46.23409 | 6.09939 | 1401 ft | 10 kts | 225° |
| 2026-05-07 19:02 | 46.23350 | 6.09852 | 1397 ft | 14 kts | 226° |
| 2026-05-07 19:02 | 46.23348 | 6.09752 | 1395 ft | 3 kts | 339° |
| 2026-05-07 19:02 | 46.23367 | 6.09730 | 1395 ft | 4 kts | 0° |
| 2026-05-07 19:02 | 46.23376 | 6.09741 | 1400 ft | 0 kts | 46° |